Time;durP1;ratioP1;P1;durP2;ratioP2;P2;SDS_P1;SDS_P2;PMS_P1;PMS_P2;Temp;Humidity;BMP_temperature;BMP_pressure;BME280_temperature;BME280_humidity;BME280_pressure;Samples;Min_cycle;Max_cycle;Signal;HPM_P1;HPM_P2
2023/12/31 00:00:30;;;;;;;;;;;;;;;6.24;88.40;100809.69;4211945;28;20047;-70
2023/12/31 00:02:31;;;;;;;;;;;;;;;6.22;88.33;100801.78;4211874;28;20014;-70
2023/12/31 00:04:34;;;;;;;;;;;;;;;6.23;88.66;100806.16;4211595;28;19974;-70
2023/12/31 00:06:36;;;;;;;;;;;;;;;6.22;88.52;100803.59;4210780;28;20011;-70
2023/12/31 00:08:38;;;;;;;;;;;;;;;6.24;88.52;100804.31;4219768;28;20011;-70
2023/12/31 00:10:41;;;;;;;;;;;;;;;6.25;88.59;100801.50;4210923;28;20010;-70
2023/12/31 00:12:43;;;;;;;;;;;;;;;6.24;88.57;100801.66;4211657;28;20020;-70
2023/12/31 00:14:45;;;;;;;;;;;;;;;6.26;88.49;100810.38;4211704;28;20433;-70
2023/12/31 00:16:48;;;;;;;;;;;;;;;6.26;88.78;100802.34;4212393;28;20369;-70
2023/12/31 00:18:50;;;;;;;;;;;;;;;6.27;88.29;100801.31;4211713;28;20019;-69
2023/12/31 00:20:52;;;;;;;;;;;;;;;6.27;88.48;100804.88;4211936;28;20023;-71
2023/12/31 00:22:53;;;;;;;;;;;;;;;6.28;88.28;100794.97;4212055;28;20027;-71
2023/12/31 00:24:55;;;;;;;;;;;;;;;6.29;88.17;100797.50;4212138;28;19927;-70
2023/12/31 00:26:58;;;;;;;;;;;;;;;6.29;88.41;100797.50;4212290;28;20064;-70
2023/12/31 00:29:00;;;;;;;;;;;;;;;6.29;88.36;100792.16;4212551;28;20016;-70
2023/12/31 00:31:01;;;;;;;;;;;;;;;6.29;88.38;100786.78;4210344;28;20020;-70
2023/12/31 00:33:04;;;;;;;;;;;;;;;6.31;88.45;100794.69;4220012;28;20016;-70
2023/12/31 00:35:05;;;;;;;;;;;;;;;6.30;88.29;100787.63;4211685;28;20026;-70
2023/12/31 00:37:07;;;;;;;;;;;;;;;6.30;88.26;100780.44;4211397;28;19924;-70
2023/12/31 00:39:09;;;;;;;;;;;;;;;6.30;88.25;100788.47;4211428;28;20019;-70
2023/12/31 00:41:11;;;;;;;;;;;;;;;6.31;88.05;100790.16;4210845;28;20018;-70
2023/12/31 00:43:13;;;;;;;;;;;;;;;6.31;88.09;100784.78;4210879;28;20018;-70
2023/12/31 00:45:15;;;;;;;;;;;;;;;6.32;88.45;100775.75;4212627;28;20023;-70
2023/12/31 00:47:18;;;;;;;;;;;;;;;6.32;88.09;100775.75;4212644;28;20030;-70
2023/12/31 00:49:21;;;;;;;;;;;;;;;6.32;88.36;100774.91;4202811;28;20366;-70
2023/12/31 00:51:23;;;;;;;;;;;;;;;6.33;87.97;100773.91;4211658;28;20023;-71
2023/12/31 00:53:25;;;;;;;;;;;;;;;6.34;88.28;100780.13;4211777;28;20019;-70
2023/12/31 00:55:28;;;;;;;;;;;;;;;6.33;87.97;100776.59;4210899;28;20026;-70
2023/12/31 00:57:30;;;;;;;;;;;;;;;6.33;88.24;100773.91;4212133;28;20044;-70
2023/12/31 00:59:35;;;;;;;;;;;;;;;6.33;88.27;100765.84;4211767;28;20023;-70
2023/12/31 01:01:37;;;;;;;;;;;;;;;6.35;88.25;100763.03;4211501;28;20019;-70
2023/12/31 01:03:38;;;;;;;;;;;;;;;6.35;87.84;100760.34;4211878;28;20026;-70
2023/12/31 01:05:40;;;;;;;;;;;;;;;6.35;87.83;100754.97;4211049;28;20389;-70
2023/12/31 01:07:42;;;;;;;;;;;;;;;6.36;88.11;100762.03;4210926;28;20022;-70
2023/12/31 01:09:43;;;;;;;;;;;;;;;6.34;88.09;100764.88;4209595;28;19927;-70
2023/12/31 01:11:45;;;;;;;;;;;;;;;6.34;87.88;100764.88;4209449;28;20343;-70
2023/12/31 01:13:47;;;;;;;;;;;;;;;6.35;88.05;100763.03;4201489;28;20023;-70
2023/12/31 01:15:50;;;;;;;;;;;;;;;6.34;87.68;100764.03;4212172;28;20026;-70
2023/12/31 01:17:53;;;;;;;;;;;;;;;6.32;87.73;100762.34;4219446;28;19965;-71
2023/12/31 01:19:55;;;;;;;;;;;;;;;6.32;87.77;100764.19;4217734;28;20062;-70
2023/12/31 01:21:57;;;;;;;;;;;;;;;6.29;87.95;100759.13;4210627;28;20397;-71
2023/12/31 01:23:59;;;;;;;;;;;;;;;6.28;88.07;100762.78;4211484;28;20036;-70
2023/12/31 01:26:01;;;;;;;;;;;;;;;6.29;88.18;100756.44;4211062;28;20375;-70
2023/12/31 01:28:03;;;;;;;;;;;;;;;6.27;87.85;100751.22;4211342;28;20327;-70
2023/12/31 01:30:06;;;;;;;;;;;;;;;6.28;87.89;100746.69;4211630;28;20410;-70
2023/12/31 01:32:09;;;;;;;;;;;;;;;6.27;87.80;100750.34;4211681;28;20432;-70
2023/12/31 01:34:11;;;;;;;;;;;;;;;6.26;87.81;100738.78;4202215;28;20083;-71
2023/12/31 01:36:14;;;;;;;;;;;;;;;6.27;87.63;100747.69;4210072;28;20014;-70
2023/12/31 01:38:18;;;;;;;;;;;;;;;6.24;87.83;100748.84;4208480;28;20757;-70
2023/12/31 01:40:19;;;;;;;;;;;;;;;6.24;87.81;100745.31;4210580;28;20470;-70
2023/12/31 01:42:21;;;;;;;;;;;;;;;6.21;87.88;100746.44;4209108;28;20039;-70
2023/12/31 01:44:23;;;;;;;;;;;;;;;6.21;87.73;100749.13;4211107;28;20429;-70
2023/12/31 01:46:26;;;;;;;;;;;;;;;6.19;87.92;100743.09;4210649;28;20034;-70
2023/12/31 01:48:29;;;;;;;;;;;;;;;6.20;87.77;100739.38;4212193;28;20019;-70
2023/12/31 01:50:32;;;;;;;;;;;;;;;6.17;87.88;100744.22;4208727;28;20023;-70
2023/12/31 01:52:34;;;;;;;;;;;;;;;6.16;87.60;100739.84;4211950;28;20559;-70
2023/12/31 01:54:36;;;;;;;;;;;;;;;6.17;87.83;100744.22;4211630;28;20018;-70
2023/12/31 01:56:37;;;;;;;;;;;;;;;6.15;87.68;100735.47;4218955;28;20053;-70
2023/12/31 01:58:39;;;;;;;;;;;;;;;6.13;87.51;100730.28;4200868;28;19928;-70
2023/12/31 02:00:41;;;;;;;;;;;;;;;6.12;87.89;100733.94;4206654;28;20031;-70
2023/12/31 02:02:43;;;;;;;;;;;;;;;6.10;88.05;100731.41;4210750;28;20027;-70
2023/12/31 02:04:47;;;;;;;;;;;;;;;6.09;87.70;100729.69;4209394;28;20034;-70
2023/12/31 02:06:49;;;;;;;;;;;;;;;6.09;87.88;100735.06;4211172;28;20441;-70
2023/12/31 02:08:50;;;;;;;;;;;;;;;6.08;87.89;100728.03;4201139;28;20446;-70
2023/12/31 02:10:52;;;;;;;;;;;;;;;6.07;87.48;100729.00;4208946;28;20015;-70
2023/12/31 02:12:54;;;;;;;;;;;;;;;6.05;87.64;100725.66;4216590;28;20019;-71
2023/12/31 02:14:55;;;;;;;;;;;;;;;6.03;87.44;100722.25;4215564;28;20458;-71
2023/12/31 02:16:57;;;;;;;;;;;;;;;6.02;87.49;100722.38;4206417;28;20517;-70
2023/12/31 02:18:59;;;;;;;;;;;;;;;6.03;87.43;100724.09;4207164;28;19924;-69
2023/12/31 02:21:02;;;;;;;;;;;;;;;6.01;87.67;100710.00;4210610;28;20058;-70
2023/12/31 02:23:05;;;;;;;;;;;;;;;5.99;87.93;100712.81;4217041;28;20018;-69
2023/12/31 02:25:08;;;;;;;;;;;;;;;5.99;87.71;100711.97;4216925;28;20465;-70
2023/12/31 02:27:11;;;;;;;;;;;;;;;5.99;87.76;100706.59;4208576;28;20030;-70
2023/12/31 02:29:12;;;;;;;;;;;;;;;5.97;87.76;100713.94;4201831;28;20474;-70
2023/12/31 02:31:14;;;;;;;;;;;;;;;5.96;87.68;100705.03;4210538;28;19928;-70
2023/12/31 02:33:16;;;;;;;;;;;;;;;5.95;87.66;100700.66;4213331;28;20438;-70
2023/12/31 02:35:18;;;;;;;;;;;;;;;5.93;87.72;100694.63;4212303;28;20039;-69
2023/12/31 02:37:20;;;;;;;;;;;;;;;5.93;87.65;100691.94;4212997;28;20375;-70
2023/12/31 02:39:22;;;;;;;;;;;;;;;5.91;87.51;100697.44;4213208;28;20059;-69
2023/12/31 02:41:25;;;;;;;;;;;;;;;5.90;87.29;100701.09;4213753;28;20022;-69
2023/12/31 02:43:27;;;;;;;;;;;;;;;5.87;87.51;100697.88;4203722;28;20023;-69
2023/12/31 02:45:31;;;;;;;;;;;;;;;5.84;87.25;100701.69;4213314;28;19941;-70
2023/12/31 02:47:34;;;;;;;;;;;;;;;5.82;87.39;100694.81;4204475;28;20015;-70
2023/12/31 02:49:36;;;;;;;;;;;;;;;5.81;87.60;100690.44;4220763;28;20047;-70
2023/12/31 02:51:38;;;;;;;;;;;;;;;5.78;87.51;100696.91;4213382;28;20018;-69
2023/12/31 02:53:40;;;;;;;;;;;;;;;5.77;87.59;100695.25;4212727;28;20010;-69
2023/12/31 02:55:41;;;;;;;;;;;;;;;5.76;87.75;100691.72;4213204;28;20020;-69
2023/12/31 02:57:43;;;;;;;;;;;;;;;5.75;87.92;100686.50;4214171;28;19928;-69
2023/12/31 02:59:46;;;;;;;;;;;;;;;5.74;87.88;100684.81;4211507;28;20019;-69
2023/12/31 03:01:50;;;;;;;;;;;;;;;5.72;87.85;100679.63;4204237;28;20028;-70
2023/12/31 03:03:52;;;;;;;;;;;;;;;5.72;87.86;100673.38;4213427;28;20355;-69
2023/12/31 03:05:54;;;;;;;;;;;;;;;5.70;87.86;100670.84;4213681;28;20036;-69
2023/12/31 03:07:56;;;;;;;;;;;;;;;5.68;87.75;100669.34;4213645;28;20504;-70
2023/12/31 03:09:57;;;;;;;;;;;;;;;5.65;87.89;100662.41;4212576;28;20019;-70
2023/12/31 03:11:59;;;;;;;;;;;;;;;5.62;87.94;100657.34;4212819;28;19985;-70
2023/12/31 03:14:01;;;;;;;;;;;;;;;5.60;87.88;100668.22;4211740;28;20035;-69
2023/12/31 03:16:06;;;;;;;;;;;;;;;5.58;87.89;100666.69;4213532;28;20015;-70
2023/12/31 03:18:08;;;;;;;;;;;;;;;5.55;88.10;100662.47;4220741;27;20023;-69
2023/12/31 03:20:10;;;;;;;;;;;;;;;5.53;88.10;100661.78;4213542;28;20110;-69
2023/12/31 03:22:11;;;;;;;;;;;;;;;5.51;87.84;100661.06;4203931;28;20003;-69
2023/12/31 03:24:13;;;;;;;;;;;;;;;5.49;88.33;100667.56;4212305;28;19974;-70
2023/12/31 03:26:15;;;;;;;;;;;;;;;5.47;88.39;100661.50;4212136;28;20010;-70
2023/12/31 03:28:17;;;;;;;;;;;;;;;5.45;88.09;100658.97;4214337;28;20157;-70
2023/12/31 03:30:19;;;;;;;;;;;;;;;5.46;88.05;100657.97;4220529;28;20152;-70
2023/12/31 03:32:21;;;;;;;;;;;;;;;5.46;88.51;100654.47;4203061;28;20019;-70
2023/12/31 03:34:23;;;;;;;;;;;;;;;5.46;88.21;100649.94;4212317;28;19963;-69
2023/12/31 03:36:25;;;;;;;;;;;;;;;5.43;88.15;100647.56;4212107;28;20568;-70
2023/12/31 03:38:27;;;;;;;;;;;;;;;5.43;88.50;100652.06;4212340;28;20030;-70
2023/12/31 03:40:29;;;;;;;;;;;;;;;5.42;88.44;100645.84;4212792;28;20034;-69
2023/12/31 03:42:31;;;;;;;;;;;;;;;5.43;88.51;100644.03;4210205;28;20019;-70
2023/12/31 03:44:33;;;;;;;;;;;;;;;5.43;88.38;100636.00;4211839;28;20026;-70
2023/12/31 03:46:34;;;;;;;;;;;;;;;5.41;88.44;100634.31;4213107;28;20019;-70
2023/12/31 03:48:38;;;;;;;;;;;;;;;5.40;88.61;100629.94;4213247;28;20015;-70
2023/12/31 03:50:38;;;;;;;;;;;;;;;5.41;88.51;100628.13;4202285;28;20011;-70
2023/12/31 03:52:40;;;;;;;;;;;;;;;5.41;88.59;100625.44;4212034;28;19963;-70
2023/12/31 03:54:42;;;;;;;;;;;;;;;5.39;88.90;100638.09;4211707;28;20011;-70
2023/12/31 03:56:45;;;;;;;;;;;;;;;5.37;88.58;100630.22;4212821;28;20306;-70
2023/12/31 03:58:47;;;;;;;;;;;;;;;5.36;88.84;100631.22;4209766;28;20018;-70
2023/12/31 04:00:49;;;;;;;;;;;;;;;5.35;88.75;100629.53;4210644;28;19924;-69
2023/12/31 04:02:52;;;;;;;;;;;;;;;5.34;88.88;100624.31;4219800;28;20023;-70
2023/12/31 04:04:55;;;;;;;;;;;;;;;5.34;88.85;100618.97;4212279;28;20027;-70
2023/12/31 04:06:57;;;;;;;;;;;;;;;5.33;89.05;100611.91;4211275;28;20023;-69
2023/12/31 04:08:58;;;;;;;;;;;;;;;5.33;89.15;100610.09;4212267;28;20023;-70
2023/12/31 04:11:00;;;;;;;;;;;;;;;5.30;89.17;100605.03;4211934;28;19945;-70
2023/12/31 04:13:02;;;;;;;;;;;;;;;5.31;89.28;100603.19;4210928;28;20034;-69
2023/12/31 04:15:07;;;;;;;;;;;;;;;5.30;89.25;100606.84;4211916;28;20019;-69
2023/12/31 04:17:09;;;;;;;;;;;;;;;5.26;89.15;100603.63;4203487;28;20023;-70
2023/12/31 04:19:14;;;;;;;;;;;;;;;5.26;89.44;100603.63;4211375;28;20019;-70
2023/12/31 04:21:17;;;;;;;;;;;;;;;5.26;89.46;100606.31;4211687;28;19924;-70
2023/12/31 04:23:19;;;;;;;;;;;;;;;5.26;89.58;100600.09;4201542;28;20011;-70
2023/12/31 04:25:21;;;;;;;;;;;;;;;5.25;89.33;100596.59;4219675;28;20452;-70
2023/12/31 04:27:23;;;;;;;;;;;;;;;5.26;89.28;100592.06;4219276;28;20023;-70
2023/12/31 04:29:25;;;;;;;;;;;;;;;5.24;89.48;100592.22;4218568;28;20015;-70
2023/12/31 04:31:27;;;;;;;;;;;;;;;5.22;89.40;100581.66;4211859;28;20030;-70
2023/12/31 04:33:29;;;;;;;;;;;;;;;5.21;89.39;100587.16;4211443;28;20018;-70
2023/12/31 04:35:30;;;;;;;;;;;;;;;5.19;89.71;100579.28;4201878;28;19960;-70
2023/12/31 04:37:34;;;;;;;;;;;;;;;5.19;89.54;100578.44;4212160;28;19932;-70
2023/12/31 04:39:35;;;;;;;;;;;;;;;5.20;89.59;100575.63;4211803;28;20489;-70
2023/12/31 04:41:37;;;;;;;;;;;;;;;5.18;89.55;100566.03;4210910;28;19946;-71
2023/12/31 04:43:39;;;;;;;;;;;;;;;5.18;89.57;100568.72;4211843;28;20501;-72
2023/12/31 04:45:41;;;;;;;;;;;;;;;5.17;89.59;100569.69;4209506;28;20440;-71
2023/12/31 04:47:43;;;;;;;;;;;;;;;5.16;89.69;100573.38;4210154;28;20007;-70
2023/12/31 04:49:45;;;;;;;;;;;;;;;5.16;89.88;100573.38;4210074;28;20027;-70
2023/12/31 04:51:47;;;;;;;;;;;;;;;5.15;89.85;100569.84;4219787;28;20067;-71
2023/12/31 04:53:51;;;;;;;;;;;;;;;5.15;89.98;100567.16;4218324;28;20010;-71
2023/12/31 04:55:53;;;;;;;;;;;;;;;5.14;89.95;100570.84;4211126;28;20331;-71
2023/12/31 04:57:55;;;;;;;;;;;;;;;5.14;90.05;100553.91;4211873;28;20011;-70
2023/12/31 04:59:57;;;;;;;;;;;;;;;5.15;90.16;100553.78;4211225;28;20424;-71
2023/12/31 05:01:59;;;;;;;;;;;;;;;5.14;89.92;100562.81;4211541;28;20446;-71
2023/12/31 05:04:01;;;;;;;;;;;;;;;5.15;90.26;100561.81;4210862;28;20453;-71
2023/12/31 05:06:03;;;;;;;;;;;;;;;5.15;90.32;100556.44;4211865;28;20018;-71
2023/12/31 05:08:05;;;;;;;;;;;;;;;5.16;90.08;100551.97;4211680;28;20015;-71
2023/12/31 05:10:09;;;;;;;;;;;;;;;5.17;89.94;100546.47;4209747;28;20026;-71
2023/12/31 05:12:11;;;;;;;;;;;;;;;5.18;89.84;100555.31;4210622;28;20023;-70
2023/12/31 05:14:13;;;;;;;;;;;;;;;5.18;90.15;100544.63;4210209;28;20023;-69
2023/12/31 05:16:15;;;;;;;;;;;;;;;5.18;90.09;100540.09;4211920;28;20366;-70
2023/12/31 05:18:17;;;;;;;;;;;;;;;5.20;89.97;100545.28;4210592;28;20051;-70
2023/12/31 05:20:19;;;;;;;;;;;;;;;5.20;89.67;100538.13;4208504;28;20034;-70
2023/12/31 05:22:21;;;;;;;;;;;;;;;5.21;89.85;100539.78;4209943;28;19928;-70
2023/12/31 05:24:23;;;;;;;;;;;;;;;5.21;89.82;100544.31;4209659;28;20002;-69
2023/12/31 05:26:25;;;;;;;;;;;;;;;5.22;89.91;100543.34;4210037;28;20014;-71
2023/12/31 05:28:27;;;;;;;;;;;;;;;5.21;90.13;100553.19;4211485;28;20368;-71
2023/12/31 05:30:29;;;;;;;;;;;;;;;5.23;90.04;100545.88;4209962;28;20031;-71
2023/12/31 05:32:31;;;;;;;;;;;;;;;5.24;89.88;100533.31;4210085;28;20366;-71
2023/12/31 05:34:33;;;;;;;;;;;;;;;5.24;90.01;100528.78;4211389;28;19935;-72
2023/12/31 05:36:35;;;;;;;;;;;;;;;5.26;90.16;100527.81;4211592;28;20019;-71
2023/12/31 05:38:37;;;;;;;;;;;;;;;5.26;89.90;100531.31;4211265;28;20035;-72
2023/12/31 05:40:39;;;;;;;;;;;;;;;5.24;90.03;100520.75;4209204;28;20038;-71
2023/12/31 05:42:43;;;;;;;;;;;;;;;5.25;89.84;100518.94;4208812;28;19967;-71
2023/12/31 05:44:45;;;;;;;;;;;;;;;5.26;90.07;100515.25;4210804;28;20023;-71
2023/12/31 05:46:47;;;;;;;;;;;;;;;5.28;89.73;100513.25;4210490;28;20035;-71
2023/12/31 05:48:49;;;;;;;;;;;;;;;5.29;89.68;100511.44;4209185;28;20636;-71
2023/12/31 05:50:51;;;;;;;;;;;;;;;5.28;89.69;100513.25;4209452;28;20456;-70
2023/12/31 05:52:53;;;;;;;;;;;;;;;5.28;89.74;100515.94;4211013;28;20028;-69
2023/12/31 05:54:55;;;;;;;;;;;;;;;5.29;89.79;100504.25;4211627;28;20075;-69
2023/12/31 05:56:56;;;;;;;;;;;;;;;5.30;89.85;100510.44;4211025;28;20589;-70
2023/12/31 05:58:59;;;;;;;;;;;;;;;5.30;89.76;100500.59;4210310;28;19941;-69
2023/12/31 06:01:02;;;;;;;;;;;;;;;5.29;89.68;100501.56;4208133;28;20038;-69
2023/12/31 06:03:05;;;;;;;;;;;;;;;5.31;89.87;100498.75;4210136;28;19924;-69
2023/12/31 06:05:06;;;;;;;;;;;;;;;5.31;89.88;100499.56;4210597;28;20376;-70
2023/12/31 06:07:08;;;;;;;;;;;;;;;5.30;89.81;100491.69;4211646;28;20457;-69
2023/12/31 06:09:10;;;;;;;;;;;;;;;5.30;90.02;100487.19;4214593;28;20019;-69
2023/12/31 06:11:12;;;;;;;;;;;;;;;5.29;89.94;100490.84;4212537;28;20049;-69
2023/12/31 06:13:14;;;;;;;;;;;;;;;5.31;89.79;100493.38;4213039;28;20026;-69
2023/12/31 06:15:16;;;;;;;;;;;;;;;5.32;89.94;100492.41;4212538;28;20370;-69
2023/12/31 06:17:18;;;;;;;;;;;;;;;5.33;89.55;100486.03;4212912;28;20449;-70
2023/12/31 06:19:20;;;;;;;;;;;;;;;5.33;89.83;100480.69;4212648;28;20023;-69
2023/12/31 06:21:22;;;;;;;;;;;;;;;5.33;89.68;100483.38;4212090;28;20063;-70
2023/12/31 06:23:24;;;;;;;;;;;;;;;5.33;89.64;100478.00;4212456;28;20621;-69
2023/12/31 06:25:26;;;;;;;;;;;;;;;5.34;89.48;100477.84;4204210;28;20035;-69
2023/12/31 06:27:27;;;;;;;;;;;;;;;5.35;89.41;100484.91;4214549;28;20014;-69
2023/12/31 06:29:29;;;;;;;;;;;;;;;5.38;89.29;100481.09;4212824;28;20541;-70
2023/12/31 06:31:32;;;;;;;;;;;;;;;5.37;89.35;100485.59;4213343;28;20018;-69
2023/12/31 06:33:34;;;;;;;;;;;;;;;5.39;89.35;100480.09;4214673;28;20030;-69
2023/12/31 06:35:36;;;;;;;;;;;;;;;5.36;89.36;100481.25;4214814;28;20426;-69
2023/12/31 06:37:38;;;;;;;;;;;;;;;5.37;89.37;100485.59;4213213;28;19924;-69
2023/12/31 06:39:42;;;;;;;;;;;;;;;5.36;89.15;100489.28;4213908;28;20452;-69
2023/12/31 06:41:43;;;;;;;;;;;;;;;5.37;89.14;100485.59;4212877;28;20360;-69
2023/12/31 06:43:45;;;;;;;;;;;;;;;5.38;89.42;100497.16;4213602;28;19956;-69
2023/12/31 06:45:47;;;;;;;;;;;;;;;5.38;89.14;100492.66;4212921;28;20011;-69
2023/12/31 06:47:50;;;;;;;;;;;;;;;5.37;89.45;100490.94;4211438;28;20015;-69
2023/12/31 06:49:53;;;;;;;;;;;;;;;5.38;89.36;100486.47;4214132;28;20012;-70
2023/12/31 06:51:55;;;;;;;;;;;;;;;5.39;89.33;100489.00;4213737;28;20015;-70
2023/12/31 06:53:58;;;;;;;;;;;;;;;5.40;89.31;100487.16;4213476;28;20019;-70
2023/12/31 06:56:03;;;;;;;;;;;;;;;5.40;89.43;100482.63;4213563;28;20020;-70
2023/12/31 06:58:05;;;;;;;;;;;;;;;5.40;89.06;100479.94;4212201;28;20011;-70
2023/12/31 07:00:08;;;;;;;;;;;;;;;5.43;89.36;100476.13;4212719;28;20030;-69
2023/12/31 07:02:09;;;;;;;;;;;;;;;5.42;88.99;100474.44;4213301;28;20022;-69
2023/12/31 07:04:13;;;;;;;;;;;;;;;5.44;89.04;100474.28;4220885;28;20027;-70
2023/12/31 07:06:15;;;;;;;;;;;;;;;5.43;88.93;100476.13;4213902;28;20349;-69
2023/12/31 07:08:17;;;;;;;;;;;;;;;5.43;89.04;100473.44;4213594;28;20449;-70
2023/12/31 07:10:19;;;;;;;;;;;;;;;5.44;89.03;100472.47;4211700;28;20027;-70
2023/12/31 07:12:21;;;;;;;;;;;;;;;5.45;88.92;100463.41;4211912;28;20027;-70
2023/12/31 07:14:24;;;;;;;;;;;;;;;5.47;89.12;100463.28;4213084;28;20043;-70
2023/12/31 07:16:26;;;;;;;;;;;;;;;5.45;89.15;100466.09;4209533;28;20015;-70
2023/12/31 07:18:28;;;;;;;;;;;;;;;5.46;89.11;100456.25;4211730;28;20785;-70
2023/12/31 07:20:31;;;;;;;;;;;;;;;5.46;89.00;100462.44;4212795;28;20394;-69
2023/12/31 07:22:33;;;;;;;;;;;;;;;5.47;89.30;100455.22;4212447;28;20011;-70
2023/12/31 07:24:36;;;;;;;;;;;;;;;5.48;89.32;100455.09;4212193;28;20365;-69
2023/12/31 07:26:38;;;;;;;;;;;;;;;5.48;89.18;100448.91;4213172;28;20018;-70
2023/12/31 07:28:40;;;;;;;;;;;;;;;5.48;89.22;100451.56;4203794;28;19992;-70
2023/12/31 07:30:43;;;;;;;;;;;;;;;5.49;89.20;100450.59;4212241;28;20015;-70
2023/12/31 07:32:44;;;;;;;;;;;;;;;5.49;89.33;100450.59;4211478;28;20733;-72
2023/12/31 07:34:46;;;;;;;;;;;;;;;5.49;89.19;100447.91;4212109;28;20477;-71
2023/12/31 07:36:49;;;;;;;;;;;;;;;5.50;89.09;100450.44;4212206;28;20023;-70
2023/12/31 07:38:51;;;;;;;;;;;;;;;5.51;89.22;100451.28;4211428;28;20019;-70
2023/12/31 07:40:53;;;;;;;;;;;;;;;5.50;89.46;100447.75;4208812;28;20026;-70
2023/12/31 07:42:55;;;;;;;;;;;;;;;5.52;89.17;100450.28;4211075;28;20035;-70
2023/12/31 07:44:56;;;;;;;;;;;;;;;5.53;89.34;100438.56;4212686;28;19924;-70
2023/12/31 07:46:58;;;;;;;;;;;;;;;5.53;89.37;100441.25;4211602;28;19973;-69
2023/12/31 07:49:00;;;;;;;;;;;;;;;5.53;89.12;100443.91;4211643;28;20434;-71
2023/12/31 07:51:03;;;;;;;;;;;;;;;5.54;88.96;100443.75;4211146;28;20087;-71
2023/12/31 07:53:06;;;;;;;;;;;;;;;5.55;89.34;100444.63;4201351;28;19971;-70
2023/12/31 07:55:09;;;;;;;;;;;;;;;5.55;88.81;100439.28;4211551;28;20014;-69
2023/12/31 07:57:11;;;;;;;;;;;;;;;5.57;89.12;100439.94;4209757;28;20020;-69
2023/12/31 07:59:13;;;;;;;;;;;;;;;5.58;89.05;100447.00;4210804;28;20011;-70
2023/12/31 08:01:15;;;;;;;;;;;;;;;5.59;88.91;100446.84;4210124;28;20137;-70
2023/12/31 08:03:18;;;;;;;;;;;;;;;5.61;88.64;100438.63;4210454;28;19990;-71
2023/12/31 08:05:20;;;;;;;;;;;;;;;5.63;88.88;100433.13;4211393;28;19935;-71
2023/12/31 08:07:21;;;;;;;;;;;;;;;5.62;88.61;100426.94;4211812;28;20415;-70
2023/12/31 08:09:24;;;;;;;;;;;;;;;5.64;88.68;100424.09;4210520;28;20022;-72
2023/12/31 08:11:26;;;;;;;;;;;;;;;5.64;88.43;100421.44;4209907;28;20011;-73
2023/12/31 08:13:28;;;;;;;;;;;;;;;5.64;88.42;100418.75;4210310;28;20023;-71
2023/12/31 08:15:30;;;;;;;;;;;;;;;5.65;88.68;100418.59;4210322;28;20007;-71
2023/12/31 08:17:31;;;;;;;;;;;;;;;5.66;88.37;100425.66;4209272;28;20047;-71
2023/12/31 08:19:33;;;;;;;;;;;;;;;5.65;88.61;100418.59;4211064;28;20026;-70
2023/12/31 08:21:35;;;;;;;;;;;;;;;5.68;88.57;100430.84;4206762;28;20035;-69
2023/12/31 08:23:37;;;;;;;;;;;;;;;5.71;88.26;100427.88;4210251;28;20010;-69
2023/12/31 08:25:41;;;;;;;;;;;;;;;5.71;88.19;100426.03;4208839;28;19963;-69
2023/12/31 08:27:42;;;;;;;;;;;;;;;5.72;88.22;100417.00;4199417;28;20453;-70
2023/12/31 08:29:44;;;;;;;;;;;;;;;5.74;88.38;100427.56;4216044;28;19934;-69
2023/12/31 08:31:49;;;;;;;;;;;;;;;5.75;88.36;100424.72;4209903;28;20010;-69
2023/12/31 08:33:51;;;;;;;;;;;;;;;5.76;87.96;100421.03;4209563;28;20031;-69
2023/12/31 08:35:53;;;;;;;;;;;;;;;5.77;88.06;100401.28;4209718;28;20023;-69
2023/12/31 08:37:55;;;;;;;;;;;;;;;5.79;87.78;100411.84;4207814;28;20019;-69
2023/12/31 08:39:57;;;;;;;;;;;;;;;5.80;87.81;100410.00;4209616;28;20074;-69
2023/12/31 08:42:01;;;;;;;;;;;;;;;5.81;87.78;100404.50;4216722;28;19996;-71
2023/12/31 08:44:03;;;;;;;;;;;;;;;5.83;87.38;100404.34;4208464;28;20023;-70
2023/12/31 08:46:07;;;;;;;;;;;;;;;5.84;87.28;100406.03;4209699;28;20031;-70
2023/12/31 08:48:10;;;;;;;;;;;;;;;5.85;87.57;100405.06;4209349;28;20465;-69
2023/12/31 08:50:12;;;;;;;;;;;;;;;5.86;87.29;100396.00;4209816;28;20019;-70
2023/12/31 08:52:13;;;;;;;;;;;;;;;5.87;87.18;100401.19;4207727;28;20055;-69
2023/12/31 08:54:15;;;;;;;;;;;;;;;5.87;87.13;100403.88;4210082;28;20007;-69
2023/12/31 08:56:16;;;;;;;;;;;;;;;5.89;87.30;100401.03;4209049;28;20043;-69
2023/12/31 08:58:19;;;;;;;;;;;;;;;5.90;87.14;100400.06;4208471;28;20511;-69
2023/12/31 09:00:21;;;;;;;;;;;;;;;5.90;87.33;100402.75;4207602;28;20019;-69
2023/12/31 09:02:22;;;;;;;;;;;;;;;5.94;87.18;100407.63;4208989;28;20026;-70
2023/12/31 09:04:28;;;;;;;;;;;;;;;5.97;86.97;100405.66;4209100;28;19932;-69
2023/12/31 09:06:30;;;;;;;;;;;;;;;5.99;86.69;100391.13;4209105;28;19935;-70
2023/12/31 09:08:32;;;;;;;;;;;;;;;5.99;86.79;100396.47;4208719;28;20022;-70
2023/12/31 09:10:33;;;;;;;;;;;;;;;6.01;86.46;100394.47;4208033;28;20007;-70
2023/12/31 09:12:35;;;;;;;;;;;;;;;6.05;86.23;100397.69;4210356;28;20350;-70
2023/12/31 09:14:37;;;;;;;;;;;;;;;6.05;86.51;100393.19;4210531;28;20015;-71
2023/12/31 09:16:39;;;;;;;;;;;;;;;6.08;86.36;100394.69;4208593;28;20383;-71
2023/12/31 09:18:41;;;;;;;;;;;;;;;6.09;86.34;100391.03;4209357;28;20026;-70
2023/12/31 09:20:43;;;;;;;;;;;;;;;6.08;86.09;100387.50;4209473;28;20369;-70
2023/12/31 09:22:47;;;;;;;;;;;;;;;6.09;85.96;100386.50;4205326;28;20023;-70
2023/12/31 09:24:51;;;;;;;;;;;;;;;6.11;85.81;100389.88;4209308;28;20024;-70
2023/12/31 09:26:52;;;;;;;;;;;;;;;6.13;85.87;100379.00;4207568;28;20007;-71
2023/12/31 09:28:54;;;;;;;;;;;;;;;6.14;86.12;100383.34;4209139;28;20030;-70
2023/12/31 09:30:58;;;;;;;;;;;;;;;6.15;85.86;100379.66;4205050;28;20020;-72
2023/12/31 09:33:00;;;;;;;;;;;;;;;6.16;85.60;100375.13;4207118;28;20452;-71
2023/12/31 09:35:01;;;;;;;;;;;;;;;6.19;85.67;100388.22;4206575;28;20028;-71
2023/12/31 09:37:03;;;;;;;;;;;;;;;6.20;85.51;100379.19;4206920;28;20882;-72
2023/12/31 09:39:04;;;;;;;;;;;;;;;6.21;85.48;100378.22;4216283;28;20011;-74
2023/12/31 09:41:06;;;;;;;;;;;;;;;6.22;85.43;100363.78;4204448;28;20374;-71
2023/12/31 09:43:08;;;;;;;;;;;;;;;6.23;85.42;100370.84;4208029;28;20010;-73
2023/12/31 09:45:09;;;;;;;;;;;;;;;6.24;85.37;100370.69;4208407;28;20433;-72
2023/12/31 09:47:14;;;;;;;;;;;;;;;6.26;85.30;100365.16;4209281;28;19932;-71
2023/12/31 09:49:16;;;;;;;;;;;;;;;6.26;85.42;100368.66;4212097;28;20015;-71
2023/12/31 09:51:18;;;;;;;;;;;;;;;6.26;85.63;100366.00;4211388;28;20014;-72
2023/12/31 09:53:20;;;;;;;;;;;;;;;6.28;85.47;100358.63;4209194;28;20425;-71
2023/12/31 09:55:22;;;;;;;;;;;;;;;6.30;85.51;100345.91;4210853;28;20346;-71
2023/12/31 09:57:24;;;;;;;;;;;;;;;6.31;85.40;100352.94;4211948;28;20042;-72
2023/12/31 09:59:27;;;;;;;;;;;;;;;6.28;85.56;100341.69;4207525;28;20037;-71
2023/12/31 10:01:29;;;;;;;;;;;;;;;6.36;85.42;100340.91;4218678;28;20032;-72
2023/12/31 10:03:32;;;;;;;;;;;;;;;6.38;85.38;100341.56;4202668;28;20444;-72
2023/12/31 10:05:33;;;;;;;;;;;;;;;6.41;84.92;100328.72;4210881;28;20027;-72
2023/12/31 10:07:35;;;;;;;;;;;;;;;6.42;84.69;100329.53;4208713;28;20445;-72
2023/12/31 10:09:37;;;;;;;;;;;;;;;6.41;85.09;100320.66;4209696;28;20014;-72
2023/12/31 10:11:39;;;;;;;;;;;;;;;6.44;84.69;100309.59;4208174;28;20027;-74
2023/12/31 10:13:41;;;;;;;;;;;;;;;6.42;84.98;100308.91;4209975;28;20473;-71
2023/12/31 10:15:43;;;;;;;;;;;;;;;6.43;84.91;100299.03;4211530;28;20372;-70
2023/12/31 10:17:45;;;;;;;;;;;;;;;6.44;84.92;100306.06;4212747;28;20095;-72
2023/12/31 10:19:48;;;;;;;;;;;;;;;6.44;85.09;100301.56;4211486;28;20023;-71
2023/12/31 10:21:50;;;;;;;;;;;;;;;6.44;84.97;100301.56;4210796;28;20089;-71
2023/12/31 10:23:52;;;;;;;;;;;;;;;6.45;84.63;100295.16;4210241;28;20632;-71
2023/12/31 10:25:54;;;;;;;;;;;;;;;6.47;84.64;100290.50;4209491;28;20390;-73
2023/12/31 10:27:56;;;;;;;;;;;;;;;6.49;84.52;100282.28;4210894;28;19985;-73
2023/12/31 10:29:58;;;;;;;;;;;;;;;6.48;84.58;100281.44;4202846;28;19999;-71
2023/12/31 10:32:01;;;;;;;;;;;;;;;6.49;84.98;100269.72;4209424;28;20453;-72
2023/12/31 10:34:13;;;;;;;;;;;;;;;6.49;84.57;100264.34;4211964;28;20023;-71
2023/12/31 10:36:16;;;;;;;;;;;;;;;6.52;84.56;100260.50;4210879;28;20031;-69